createdAt,value
2018-09-11T00:01:23.385Z,6.80
2018-09-11T00:03:51.546Z,6.60
2018-09-11T00:06:19.656Z,7.10
2018-09-11T00:08:47.795Z,7.70
2018-09-11T00:11:15.902Z,7.70
2018-09-11T00:13:44.037Z,7.30
2018-09-11T00:16:12.163Z,7.20
2018-09-11T00:18:40.264Z,7.50
2018-09-11T00:21:08.394Z,7.60
2018-09-11T00:23:36.528Z,7.20
2018-09-11T00:26:04.646Z,6.90
2018-09-11T00:28:32.798Z,7.30
2018-09-11T00:31:01.081Z,7.40
2018-09-11T00:33:29.231Z,7.10
2018-09-11T00:35:57.354Z,7.40
2018-09-11T00:38:25.488Z,7.30
2018-09-11T00:40:53.606Z,6.50
2018-09-11T00:43:21.721Z,6.20
2018-09-11T00:45:50.272Z,5.50
2018-09-11T00:48:18.392Z,6.30
2018-09-11T00:50:46.701Z,7.00
2018-09-11T00:53:14.817Z,7.50
2018-09-11T00:55:42.954Z,7.70
2018-09-11T00:58:11.089Z,8.30
2018-09-11T01:00:39.241Z,8.00
2018-09-11T01:03:07.368Z,8.20
2018-09-11T01:05:35.548Z,9.50
2018-09-11T01:08:03.681Z,9.40
2018-09-11T01:10:31.813Z,9.80
2018-09-11T01:12:59.930Z,9.80
2018-09-11T01:15:28.052Z,9.60
2018-09-11T01:17:56.177Z,9.00
2018-09-11T01:20:24.413Z,9.80
2018-09-11T01:22:52.618Z,10.80
2018-09-11T01:25:20.781Z,10.40
2018-09-11T01:27:48.904Z,9.80
2018-09-11T01:30:21.553Z,9.70
2018-09-11T01:32:50.353Z,9.50
2018-09-11T01:35:18.489Z,10.20
2018-09-11T01:37:46.720Z,11.10
2018-09-11T01:40:14.919Z,11.30
2018-09-11T01:42:43.053Z,12.80
2018-09-11T01:45:11.181Z,12.60
2018-09-11T01:47:39.306Z,11.20
2018-09-11T01:50:07.439Z,9.40
2018-09-11T01:52:35.552Z,7.90
2018-09-11T01:55:03.691Z,6.30
2018-09-11T01:57:31.824Z,5.00
2018-09-11T01:59:59.958Z,3.90
2018-09-11T02:02:28.086Z,2.80
2018-09-11T02:04:56.283Z,2.60
2018-09-11T02:07:24.403Z,2.40
2018-09-11T02:09:52.551Z,1.70
2018-09-11T02:12:20.673Z,1.10
2018-09-11T02:14:48.798Z,1.00
2018-09-11T02:17:16.912Z,1.00
2018-09-11T02:19:45.049Z,1.00
2018-09-11T02:22:13.172Z,1.00
2018-09-11T02:24:41.277Z,1.00
2018-09-11T02:27:09.394Z,1.00
2018-09-11T02:29:37.514Z,1.00
2018-09-11T02:32:05.726Z,1.00
2018-09-11T02:34:33.841Z,1.00
2018-09-11T02:37:01.964Z,1.00
2018-09-11T02:39:30.074Z,1.00
2018-09-11T02:41:58.189Z,1.00
2018-09-11T02:44:26.313Z,1.00
2018-09-11T02:46:54.429Z,1.00
2018-09-11T02:49:22.620Z,1.00
2018-09-11T02:51:50.704Z,1.00
2018-09-11T02:54:18.825Z,1.00
2018-09-11T02:56:46.954Z,1.20
2018-09-11T02:59:15.045Z,1.00
2018-09-11T03:01:43.160Z,1.10
2018-09-11T03:04:11.275Z,1.20
2018-09-11T03:06:39.401Z,1.50
2018-09-11T03:09:07.552Z,1.50
2018-09-11T03:11:35.830Z,2.10
2018-09-11T03:14:03.961Z,2.30
2018-09-11T03:16:32.106Z,2.70
2018-09-11T03:19:00.278Z,3.10
2018-09-11T03:21:28.396Z,3.50
2018-09-11T03:23:56.533Z,4.00
2018-09-11T03:26:24.676Z,4.00
2018-09-11T03:28:52.805Z,3.80
2018-09-11T03:31:21.072Z,3.60
2018-09-11T03:33:49.204Z,3.90
2018-09-11T03:36:17.353Z,4.10
2018-09-11T03:38:45.490Z,4.20
2018-09-11T03:41:13.967Z,4.90
2018-09-11T03:43:42.099Z,4.80
2018-09-11T03:46:10.249Z,5.40
2018-09-11T03:48:38.393Z,5.90
2018-09-11T03:51:06.543Z,6.00
2018-09-11T03:53:34.678Z,5.80
2018-09-11T03:56:02.818Z,6.30
2018-09-11T03:58:30.973Z,7.00
2018-09-11T04:00:59.097Z,6.80
2018-09-11T04:03:27.237Z,7.20
2018-09-11T04:05:55.380Z,7.40
2018-09-11T04:08:23.578Z,7.00
2018-09-11T04:10:51.733Z,7.80
2018-09-11T04:13:19.841Z,7.70
2018-09-11T04:15:47.986Z,7.70
2018-09-11T04:18:16.276Z,8.00
2018-09-11T04:20:44.496Z,8.20
2018-09-11T04:23:12.624Z,8.20
2018-09-11T04:25:41.216Z,8.10
2018-09-11T04:28:09.273Z,8.40
2018-09-11T04:30:37.373Z,8.70
2018-09-11T04:33:06.495Z,8.40
2018-09-11T04:35:34.633Z,8.10
2018-09-11T04:38:02.771Z,8.10
2018-09-11T04:40:30.886Z,8.30
2018-09-11T04:42:59.117Z,7.80
2018-09-11T04:45:27.159Z,8.10
2018-09-11T04:47:55.281Z,7.80
2018-09-11T04:50:23.386Z,7.70
2018-09-11T04:52:51.518Z,8.10
2018-09-11T04:55:23.278Z,8.50
2018-09-11T04:57:51.386Z,9.10
2018-09-11T05:00:19.536Z,8.80
2018-09-11T05:02:47.666Z,8.70
2018-09-11T05:05:15.828Z,8.80
2018-09-11T05:07:43.950Z,8.70
2018-09-11T05:10:12.189Z,9.40
2018-09-11T05:12:40.330Z,9.00
2018-09-11T05:15:08.470Z,9.20
2018-09-11T05:17:36.613Z,9.30
2018-09-11T05:20:04.765Z,8.80
2018-09-11T05:22:32.913Z,9.20
2018-09-11T05:25:01.063Z,8.90
2018-09-11T05:27:29.259Z,8.30
2018-09-11T05:29:57.328Z,8.60
2018-09-11T05:32:25.440Z,8.20
2018-09-11T05:34:53.569Z,8.00
2018-09-11T05:37:21.862Z,7.70
2018-09-11T05:39:49.994Z,7.50
2018-09-11T05:42:18.119Z,7.70
2018-09-11T05:44:46.274Z,7.70
2018-09-11T05:47:14.474Z,6.50
2018-09-11T05:49:42.537Z,6.50
2018-09-11T05:52:10.672Z,6.50
2018-09-11T05:54:38.800Z,7.30
2018-09-11T05:57:06.921Z,6.90
2018-09-11T05:59:35.062Z,6.80
2018-09-11T06:02:03.187Z,6.70
2018-09-11T06:04:31.304Z,6.60
2018-09-11T06:06:59.424Z,5.80
2018-09-11T06:09:27.557Z,5.50
2018-09-11T06:11:55.682Z,4.90
2018-09-11T06:14:23.805Z,4.30
2018-09-11T06:16:51.912Z,4.40
2018-09-11T06:19:20.026Z,4.60
2018-09-11T06:21:48.150Z,3.70
2018-09-11T06:24:16.276Z,3.10
2018-09-11T06:26:44.390Z,3.10
2018-09-11T06:29:12.555Z,3.40
2018-09-11T06:31:40.605Z,3.40
2018-09-11T06:34:08.720Z,3.40
2018-09-11T06:36:37.253Z,3.80
2018-09-11T06:39:07.254Z,3.40
2018-09-11T06:41:35.354Z,2.50
2018-09-11T06:44:03.484Z,1.90
2018-09-11T06:46:31.817Z,1.00
2018-09-11T06:48:59.965Z,1.00
2018-09-11T06:51:28.173Z,1.00
2018-09-11T06:53:56.276Z,1.00
2018-09-11T06:56:24.408Z,1.00
2018-09-11T06:58:52.573Z,1.00
2018-09-11T07:01:20.669Z,1.00
2018-09-11T07:03:48.801Z,1.00
2018-09-11T07:06:16.947Z,1.00
2018-09-11T07:08:45.090Z,1.00
2018-09-11T07:11:13.322Z,1.00
2018-09-11T07:13:41.441Z,1.00
2018-09-11T07:16:09.584Z,1.00
2018-09-11T07:18:37.725Z,1.00
2018-09-11T07:21:05.864Z,1.00
2018-09-11T07:23:33.984Z,1.00
2018-09-11T07:26:02.187Z,1.00
2018-09-11T07:28:30.292Z,1.00
2018-09-11T07:30:58.433Z,1.00
2018-09-11T07:33:26.561Z,1.00
2018-09-11T07:35:54.841Z,1.00
2018-09-11T07:38:23.004Z,1.00
2018-09-11T07:40:51.133Z,1.00
2018-09-11T07:43:19.285Z,1.00
2018-09-11T07:45:47.429Z,1.00
2018-09-11T07:48:15.609Z,1.00
2018-09-11T07:50:43.751Z,1.00
2018-09-11T07:53:11.878Z,1.00
2018-09-11T07:55:40.008Z,1.00
2018-09-11T07:58:08.615Z,1.00
2018-09-11T08:00:36.716Z,1.00
2018-09-11T08:03:04.937Z,1.00
2018-09-11T08:05:33.029Z,1.00
2018-09-11T08:08:01.097Z,1.00
2018-09-11T08:10:30.076Z,1.00
2018-09-11T08:12:58.226Z,1.00
2018-09-11T08:15:26.517Z,1.00
2018-09-11T08:17:54.703Z,1.00
2018-09-11T08:20:22.809Z,1.00
2018-09-11T08:22:50.933Z,1.00
2018-09-11T08:25:19.061Z,1.00
2018-09-11T08:27:47.193Z,1.00
2018-09-11T08:30:15.349Z,1.00
2018-09-11T08:32:43.459Z,1.00
2018-09-11T08:35:11.639Z,1.00
2018-09-11T08:37:39.768Z,1.00
2018-09-11T08:40:07.926Z,1.00
2018-09-11T08:42:37.113Z,1.00
2018-09-11T08:45:05.276Z,1.00
2018-09-11T08:47:33.409Z,1.00
2018-09-11T08:50:01.560Z,1.00
2018-09-11T08:52:29.762Z,1.00
2018-09-11T08:54:57.837Z,1.00
2018-09-11T08:57:25.981Z,1.00
2018-09-11T08:59:54.089Z,1.00
2018-09-11T09:02:22.267Z,1.00
2018-09-11T09:04:50.415Z,1.00
2018-09-11T09:07:18.556Z,1.00
2018-09-11T09:09:46.713Z,1.00
2018-09-11T09:12:15.037Z,1.00
2018-09-11T09:14:43.170Z,1.00
2018-09-11T09:17:11.281Z,1.00
2018-09-11T09:19:39.401Z,1.00
2018-09-11T09:22:07.531Z,1.00
2018-09-11T09:24:35.654Z,1.00
2018-09-11T09:27:03.829Z,1.00
2018-09-11T09:29:31.937Z,1.00
2018-09-11T09:32:00.049Z,1.00
2018-09-11T09:34:28.257Z,1.00
2018-09-11T09:36:56.459Z,1.00
2018-09-11T09:39:24.483Z,1.00
2018-09-11T09:41:52.613Z,1.00
2018-09-11T09:44:20.721Z,1.00
2018-09-11T09:46:48.878Z,1.00
2018-09-11T09:49:17.001Z,1.00
2018-09-11T09:51:45.121Z,1.00
2018-09-11T09:54:13.228Z,1.00
2018-09-11T09:56:41.355Z,1.00
2018-09-11T09:59:09.493Z,1.00
2018-09-11T10:01:43.966Z,1.00
2018-09-11T10:04:14.174Z,1.00
2018-09-11T10:06:42.374Z,1.00
2018-09-11T10:09:11.905Z,1.00
2018-09-11T10:11:40.151Z,1.00
2018-09-11T10:14:08.250Z,1.00
2018-09-11T10:16:36.406Z,1.00
2018-09-11T10:19:04.558Z,1.00
2018-09-11T10:21:32.686Z,1.00
2018-09-11T10:24:00.833Z,1.00
2018-09-11T10:26:28.953Z,1.00
2018-09-11T10:28:57.090Z,1.00
2018-09-11T10:31:25.229Z,1.00
2018-09-11T10:33:53.428Z,1.00
2018-09-11T10:36:21.493Z,1.00
2018-09-11T10:38:49.633Z,1.00
2018-09-11T10:41:17.748Z,1.00
2018-09-11T10:43:45.869Z,1.00
2018-09-11T10:46:14.019Z,1.00
2018-09-11T10:48:42.176Z,1.00
2018-09-11T10:51:10.286Z,1.00
2018-09-11T10:53:38.425Z,1.00
2018-09-11T10:56:06.846Z,1.00
2018-09-11T10:58:35.029Z,1.00
2018-09-11T11:01:03.160Z,1.00
2018-09-11T11:03:31.294Z,1.00
2018-09-11T11:05:59.413Z,1.00
2018-09-11T11:08:27.544Z,1.00
2018-09-11T11:10:55.688Z,1.00
2018-09-11T11:13:23.821Z,1.00
2018-09-11T11:15:51.945Z,1.00
2018-09-11T11:18:20.085Z,1.00
2018-09-11T11:20:48.201Z,1.00
2018-09-11T11:23:16.351Z,1.00
2018-09-11T11:25:44.469Z,1.00
2018-09-11T11:28:12.625Z,1.00
2018-09-11T11:30:40.749Z,1.00
2018-09-11T11:33:08.886Z,1.00
2018-09-11T11:35:36.995Z,1.00
2018-09-11T11:38:05.145Z,1.00
2018-09-11T11:40:33.286Z,1.00
2018-09-11T11:43:01.422Z,1.00
2018-09-11T11:45:29.828Z,1.00
2018-09-11T11:47:57.973Z,1.00
2018-09-11T11:50:26.095Z,1.00
2018-09-11T11:52:54.231Z,1.00
2018-09-11T11:55:22.427Z,1.00
2018-09-11T11:57:50.507Z,1.00
2018-09-11T12:00:18.642Z,1.00
2018-09-11T12:02:46.757Z,1.00
2018-09-11T12:05:14.908Z,1.00
2018-09-11T12:07:43.061Z,1.00
2018-09-11T12:10:11.246Z,1.00
2018-09-11T12:12:39.414Z,1.00
2018-09-11T12:15:07.533Z,1.00
2018-09-11T12:17:35.650Z,1.00
2018-09-11T12:20:03.770Z,1.00
2018-09-11T12:22:31.881Z,1.00
2018-09-11T12:25:00.015Z,1.00
2018-09-11T12:27:28.203Z,1.00
2018-09-11T12:29:56.298Z,1.00
2018-09-11T12:32:24.418Z,1.00
2018-09-11T12:34:52.552Z,1.00
2018-09-11T12:37:20.658Z,1.00
2018-09-11T12:39:48.767Z,1.00
2018-09-11T12:42:16.869Z,1.00
2018-09-11T12:44:44.982Z,1.00
2018-09-11T12:47:13.287Z,1.00
2018-09-11T12:49:42.060Z,1.00
2018-09-11T12:52:10.538Z,1.00
2018-09-11T12:54:38.658Z,1.00
2018-09-11T12:57:06.775Z,1.00
2018-09-11T12:59:34.889Z,1.00
2018-09-11T13:02:03.007Z,1.00
2018-09-11T13:04:31.132Z,1.00
2018-09-11T13:06:59.247Z,1.00
2018-09-11T13:09:27.409Z,1.00
2018-09-11T13:11:55.518Z,1.00
2018-09-11T13:14:23.632Z,1.00
2018-09-11T13:16:51.739Z,1.00
2018-09-11T13:19:19.849Z,1.00
2018-09-11T13:21:47.961Z,1.00
2018-09-11T13:24:16.090Z,1.00
2018-09-11T13:26:44.206Z,1.00
2018-09-11T13:29:12.414Z,1.00
2018-09-11T13:31:40.551Z,1.00
2018-09-11T13:34:08.701Z,1.00
2018-09-11T13:36:36.833Z,1.00
2018-09-11T13:39:06.752Z,1.00
2018-09-11T13:41:34.892Z,1.00
2018-09-11T13:44:03.003Z,1.00
2018-09-11T13:46:31.166Z,1.00
2018-09-11T13:48:59.265Z,1.00
2018-09-11T13:51:27.389Z,1.00
2018-09-11T13:53:55.521Z,1.00
2018-09-11T13:56:23.637Z,1.00
2018-09-11T13:58:51.773Z,1.00
2018-09-11T14:01:19.917Z,1.00
2018-09-11T14:03:48.030Z,1.00
2018-09-11T14:06:16.158Z,1.00
2018-09-11T14:08:44.274Z,1.00
2018-09-11T14:11:12.406Z,1.00
2018-09-11T14:13:40.510Z,1.00
2018-09-11T14:16:08.608Z,1.00
2018-09-11T14:18:36.731Z,1.00
2018-09-11T14:21:05.655Z,1.00
2018-09-11T14:23:33.760Z,1.00
2018-09-11T14:26:01.919Z,1.00
2018-09-11T14:28:30.071Z,1.00
2018-09-11T14:30:58.188Z,1.00
2018-09-11T14:33:26.337Z,1.00
2018-09-11T14:35:54.473Z,1.00
2018-09-11T14:38:22.577Z,1.00
2018-09-11T14:40:50.694Z,1.00
2018-09-11T14:43:18.796Z,1.00
2018-09-11T14:45:47.021Z,1.00
2018-09-11T14:48:15.114Z,1.00
2018-09-11T14:50:43.226Z,1.00
2018-09-11T14:53:11.342Z,1.00
2018-09-11T14:55:39.491Z,1.00
2018-09-11T14:58:07.653Z,1.00
2018-09-11T15:00:35.833Z,1.00
2018-09-11T15:03:03.951Z,1.00
2018-09-11T15:05:32.050Z,1.00
2018-09-11T15:08:00.312Z,1.00
2018-09-11T15:10:28.291Z,1.00
2018-09-11T15:12:56.467Z,1.00
2018-09-11T15:15:24.580Z,1.00
2018-09-11T15:17:52.697Z,1.00
2018-09-11T15:20:20.833Z,1.00
2018-09-11T15:22:48.970Z,1.00
2018-09-11T15:25:17.085Z,1.00
2018-09-11T15:27:45.226Z,1.00
2018-09-11T15:30:13.353Z,1.00
2018-09-11T15:32:41.484Z,1.00
2018-09-11T15:35:09.597Z,1.00
2018-09-11T15:37:37.782Z,1.00
2018-09-11T15:40:05.952Z,1.00
2018-09-11T15:42:34.077Z,1.00
2018-09-11T15:45:02.205Z,1.00
2018-09-11T15:47:30.343Z,1.00
2018-09-11T15:49:58.465Z,1.00
2018-09-11T15:52:26.650Z,1.00
2018-09-11T15:54:54.781Z,1.00
2018-09-11T15:57:22.902Z,1.00
2018-09-11T15:59:51.031Z,1.00
2018-09-11T16:02:19.160Z,1.00
2018-09-11T16:04:47.276Z,1.00
2018-09-11T16:07:15.404Z,1.00
2018-09-11T16:09:43.571Z,1.00
2018-09-11T16:12:11.908Z,1.00
2018-09-11T16:14:40.034Z,1.00
2018-09-11T16:17:08.173Z,1.00
2018-09-11T16:19:36.390Z,1.00
2018-09-11T16:22:04.566Z,1.00
2018-09-11T16:24:32.675Z,1.00
2018-09-11T16:27:00.880Z,1.00
2018-09-11T16:29:29.038Z,1.00
2018-09-11T16:31:57.215Z,1.00
2018-09-11T16:34:25.385Z,1.00
2018-09-11T16:36:53.538Z,1.00
2018-09-11T16:39:21.665Z,1.00
2018-09-11T16:41:49.821Z,1.00
2018-09-11T16:44:17.988Z,1.00
2018-09-11T16:46:46.227Z,1.00
2018-09-11T16:49:14.345Z,1.00
2018-09-11T16:51:42.518Z,1.00
2018-09-11T16:54:10.706Z,1.00
2018-09-11T16:56:38.861Z,1.00
2018-09-11T16:59:07.562Z,1.00
2018-09-11T17:01:35.727Z,1.00
2018-09-11T17:04:03.904Z,1.00
2018-09-11T17:06:32.057Z,1.00
2018-09-11T17:09:00.241Z,1.00
2018-09-11T17:11:28.422Z,1.00
2018-09-11T17:13:56.584Z,1.00
2018-09-11T17:16:24.703Z,1.00
2018-09-11T17:18:52.940Z,1.00
2018-09-11T17:21:21.094Z,1.00
2018-09-11T17:23:49.255Z,1.00
2018-09-11T17:26:17.445Z,1.00
2018-09-11T17:28:46.653Z,1.00
2018-09-11T17:31:14.756Z,1.00
2018-09-11T17:33:42.872Z,1.00
2018-09-11T17:36:11.064Z,1.00
2018-09-11T17:38:39.241Z,1.00
2018-09-11T17:41:07.453Z,1.00
2018-09-11T17:43:35.605Z,1.00
2018-09-11T17:46:03.797Z,1.00
2018-09-11T17:48:31.953Z,1.00
2018-09-11T17:51:00.134Z,1.00
2018-09-11T17:53:28.306Z,1.00
2018-09-11T17:55:56.462Z,1.00
2018-09-11T17:58:24.617Z,1.00
2018-09-11T18:00:52.817Z,1.00
2018-09-11T18:03:21.005Z,1.00
2018-09-11T18:05:49.165Z,1.00
2018-09-11T18:08:17.364Z,1.00
2018-09-11T18:10:46.065Z,1.00
2018-09-11T18:13:14.322Z,1.00
2018-09-11T18:15:42.515Z,1.00
2018-09-11T18:18:10.861Z,1.00
2018-09-11T18:20:39.041Z,1.00
2018-09-11T18:23:07.300Z,1.00
2018-09-11T18:25:35.498Z,1.00
2018-09-11T18:28:03.653Z,1.00
2018-09-11T18:30:31.865Z,1.00
2018-09-11T18:32:59.996Z,1.00
2018-09-11T18:35:28.181Z,1.00
2018-09-11T18:37:56.347Z,1.00
2018-09-11T18:40:24.526Z,1.00
2018-09-11T18:42:52.710Z,1.00
2018-09-11T18:45:20.911Z,1.00
2018-09-11T18:47:50.066Z,1.00
2018-09-11T18:50:18.288Z,1.00
2018-09-11T18:52:46.512Z,1.00
2018-09-11T18:55:14.698Z,1.00
2018-09-11T18:57:42.963Z,1.00
2018-09-11T19:00:11.055Z,1.00
2018-09-11T19:02:39.231Z,1.00
2018-09-11T19:05:07.418Z,1.00
2018-09-11T19:07:35.534Z,1.00
2018-09-11T19:10:03.751Z,1.00
2018-09-11T19:12:31.894Z,1.00
2018-09-11T19:15:01.097Z,1.00
2018-09-11T19:17:29.265Z,1.00
2018-09-11T19:19:57.512Z,1.00
2018-09-11T19:22:25.621Z,1.00
2018-09-11T19:24:53.746Z,1.00
2018-09-11T19:27:21.864Z,1.00
2018-09-11T19:29:49.986Z,1.00
2018-09-11T19:32:18.094Z,1.00
2018-09-11T19:34:46.293Z,1.00
2018-09-11T19:37:14.462Z,1.00
2018-09-11T19:39:42.633Z,1.00
2018-09-11T19:42:10.802Z,1.00
2018-09-11T19:44:39.001Z,1.00
2018-09-11T19:47:07.150Z,1.00
2018-09-11T19:49:35.350Z,1.00
2018-09-11T19:52:03.510Z,1.00
2018-09-11T19:54:31.669Z,1.00
2018-09-11T19:56:59.810Z,1.00
2018-09-11T19:59:28.026Z,1.00
2018-09-11T20:01:56.206Z,1.00
2018-09-11T20:04:24.374Z,1.00
2018-09-11T20:06:52.560Z,1.00
2018-09-11T20:09:20.712Z,1.00
2018-09-11T20:11:48.905Z,1.00
2018-09-11T20:14:17.068Z,1.00
2018-09-11T20:16:45.256Z,1.00
2018-09-11T20:19:13.413Z,1.00
2018-09-11T20:21:41.589Z,1.00
2018-09-11T20:24:09.764Z,1.00
2018-09-11T20:26:37.932Z,1.00
2018-09-11T20:29:06.113Z,1.00
2018-09-11T20:31:34.302Z,1.00
2018-09-11T20:34:02.467Z,1.00
2018-09-11T20:36:30.649Z,1.00
2018-09-11T20:38:58.817Z,1.00
2018-09-11T20:41:27.105Z,1.00
2018-09-11T20:43:55.252Z,1.00
2018-09-11T20:46:23.455Z,1.00
2018-09-11T20:48:51.565Z,1.00
2018-09-11T20:51:19.686Z,1.00
2018-09-11T20:53:47.877Z,1.00
2018-09-11T20:56:16.039Z,1.00
2018-09-11T20:58:44.195Z,1.00
2018-09-11T21:01:12.269Z,1.00
2018-09-11T21:03:40.455Z,1.00
2018-09-11T21:06:08.673Z,1.00
2018-09-11T21:08:36.833Z,1.00
2018-09-11T21:11:04.969Z,1.00
2018-09-11T21:13:33.089Z,1.00
2018-09-11T21:16:01.216Z,1.00
2018-09-11T21:18:29.392Z,1.00
2018-09-11T21:20:57.585Z,1.00
2018-09-11T21:23:25.774Z,1.00
2018-09-11T21:25:53.950Z,1.00
2018-09-11T21:28:22.088Z,1.00
2018-09-11T21:30:50.284Z,1.00
2018-09-11T21:33:18.456Z,1.00
2018-09-11T21:35:46.624Z,1.00
2018-09-11T21:38:14.813Z,1.00
2018-09-11T21:40:42.973Z,1.00
2018-09-11T21:43:11.104Z,1.00
2018-09-11T21:45:39.308Z,1.00
2018-09-11T21:48:07.500Z,1.00
2018-09-11T21:50:35.674Z,1.00
2018-09-11T21:53:03.857Z,1.00
2018-09-11T21:55:32.025Z,1.00
2018-09-11T21:58:00.204Z,1.00
2018-09-11T22:00:28.364Z,1.00
2018-09-11T22:02:57.494Z,1.00
2018-09-11T22:05:25.632Z,1.00
2018-09-11T22:07:53.834Z,1.00
2018-09-11T22:10:21.965Z,1.00
2018-09-11T22:12:50.090Z,1.00
2018-09-11T22:15:18.226Z,1.00
2018-09-11T22:17:46.345Z,1.00
2018-09-11T22:20:14.445Z,1.00
2018-09-11T22:22:42.545Z,1.00
2018-09-11T22:25:10.625Z,1.00
2018-09-11T22:27:38.728Z,1.00
2018-09-11T22:30:06.885Z,1.00
2018-09-11T22:32:35.005Z,1.00
2018-09-11T22:35:03.101Z,1.00
2018-09-11T22:37:31.196Z,1.00
2018-09-11T22:39:59.291Z,1.00
2018-09-11T22:42:27.501Z,1.00
2018-09-11T22:44:55.597Z,1.00
2018-09-11T22:47:23.704Z,1.00
2018-09-11T22:49:51.784Z,1.00
2018-09-11T22:52:19.897Z,1.00
2018-09-11T22:54:47.981Z,1.00
2018-09-11T22:57:16.077Z,1.00
2018-09-11T22:59:44.177Z,1.00
2018-09-11T23:02:12.273Z,1.00
2018-09-11T23:04:40.413Z,1.00
2018-09-11T23:07:08.504Z,1.00
2018-09-11T23:09:36.629Z,1.00
2018-09-11T23:12:04.733Z,1.00
2018-09-11T23:14:32.844Z,1.00
2018-09-11T23:17:00.955Z,1.00
2018-09-11T23:19:29.066Z,1.00
2018-09-11T23:21:57.164Z,1.00
2018-09-11T23:24:25.285Z,1.00
2018-09-11T23:26:53.388Z,1.00
2018-09-11T23:29:21.721Z,1.00
2018-09-11T23:31:49.824Z,1.00
2018-09-11T23:34:17.947Z,1.00
2018-09-11T23:36:46.089Z,1.00
2018-09-11T23:39:14.209Z,1.00
2018-09-11T23:41:42.313Z,1.00
2018-09-11T23:44:10.442Z,1.00
2018-09-11T23:46:38.534Z,1.00
2018-09-11T23:49:06.741Z,1.00
2018-09-11T23:51:34.854Z,1.00
2018-09-11T23:54:02.964Z,1.00
2018-09-11T23:56:31.061Z,1.00
2018-09-11T23:58:59.180Z,1.00
